Time,TemperatureF,DewpointF,PressureIn,WindDirection,WindDirectionDegrees,WindSpeedMPH,WindSpeedGustMPH,Humidity,HourlyPrecipIn,Conditions,Clouds,dailyrainin,SoftwareType,DateUTC
2013-09-30 00:00:00,51.8,34.8,29.74,South,180,0.0,4.0,52,0.00,,---,0.00,VWS V13.01,2013-09-30 06:00:00,
2013-09-30 00:30:00,51.0,35.4,29.73,NW,315,0.0,5.0,55,0.00,,---,0.00,VWS V13.01,2013-09-30 06:30:00,
2013-09-30 01:00:00,49.8,34.3,29.73,North,0,0.0,5.0,55,0.00,,---,0.00,VWS V13.01,2013-09-30 07:00:00,
2013-09-30 01:30:00,50.1,34.1,29.72,East,90,2.0,6.0,54,0.00,,---,0.00,VWS V13.01,2013-09-30 07:30:00,
2013-09-30 02:00:00,50.7,34.7,29.70,ESE,112,2.0,9.0,54,0.00,,---,0.00,VWS V13.01,2013-09-30 08:00:00,
2013-09-30 02:30:00,51.3,34.8,29.69,ESE,112,1.0,11.0,53,0.00,,---,0.00,VWS V13.01,2013-09-30 08:30:00,
2013-09-30 03:00:00,51.3,35.2,29.69,East,90,0.0,7.0,54,0.00,,---,0.00,VWS V13.01,2013-09-30 09:00:00,
2013-09-30 03:30:00,52.9,34.3,29.68,West,270,6.0,17.0,49,0.00,,---,0.00,VWS V13.01,2013-09-30 09:30:00,
2013-09-30 04:00:00,54.6,35.3,29.67,SW,225,9.0,22.0,48,0.00,,---,0.00,VWS V13.01,2013-09-30 10:00:00,
2013-09-30 04:30:00,54.7,36.4,29.67,SW,225,7.0,17.0,50,0.00,,---,0.00,VWS V13.01,2013-09-30 10:30:00,
2013-09-30 05:00:00,54.5,37.2,29.66,SW,225,8.0,18.0,52,0.00,,---,0.00,VWS V13.01,2013-09-30 11:00:00,
2013-09-30 05:30:00,54.1,37.4,29.66,SW,225,5.0,15.0,53,0.00,,---,0.00,VWS V13.01,2013-09-30 11:30:00,
2013-09-30 06:00:00,53.3,38.5,29.66,SW,225,3.0,15.0,57,0.00,,---,0.00,VWS V13.01,2013-09-30 12:00:00,
2013-09-30 06:30:00,51.6,38.6,29.67,West,270,0.0,6.0,61,0.00,,---,0.00,VWS V13.01,2013-09-30 12:30:00,
2013-09-30 07:00:00,49.8,37.7,29.66,ESE,112,1.0,6.0,63,0.00,,---,0.00,VWS V13.01,2013-09-30 13:00:00,
2013-09-30 07:30:00,49.3,38.0,29.65,ESE,112,1.0,6.0,65,0.00,,---,0.00,VWS V13.01,2013-09-30 13:30:00,
2013-09-30 08:00:00,49.6,38.3,29.66,SSW,202,1.0,10.0,65,0.00,,---,0.00,VWS V13.01,2013-09-30 14:00:00,
2013-09-30 08:30:00,53.6,38.8,29.65,SSW,202,4.0,12.0,57,0.00,,---,0.00,VWS V13.01,2013-09-30 14:30:00,
2013-09-30 09:02:00,57.8,38.8,29.64,SW,225,3.0,15.0,49,0.00,,---,0.00,VWS V13.01,2013-09-30 15:02:00,
2013-09-30 09:07:00,60.8,41.0,29.64,West,267,6.0,11.0,48,0.00,,---,0.00,VWS V13.01,2013-09-30 15:07:00,
2013-09-30 09:12:00,61.2,41.4,29.63,WSW,258,5.0,11.0,48,0.00,,---,0.00,VWS V13.01,2013-09-30 15:12:00,
2013-09-30 09:17:00,61.7,41.3,29.64,West,263,4.0,11.0,47,0.00,,---,0.00,VWS V13.01,2013-09-30 15:17:00,
2013-09-30 09:22:00,62.0,41.0,29.63,WSW,243,3.0,11.0,46,0.00,,---,0.00,VWS V13.01,2013-09-30 15:22:00,
2013-09-30 09:27:00,62.1,41.1,29.64,WSW,255,10.0,14.0,46,0.00,,---,0.00,VWS V13.01,2013-09-30 15:27:00,
2013-09-30 09:32:00,62.4,40.2,29.64,WSW,244,9.0,9.0,44,0.00,,---,0.00,VWS V13.01,2013-09-30 15:32:00,
2013-09-30 09:37:00,62.6,41.0,29.65,WSW,241,11.0,11.0,45,0.00,,---,0.00,VWS V13.01,2013-09-30 15:37:00,
2013-09-30 09:43:00,63.0,41.3,29.64,WSW,247,4.0,12.0,45,0.00,,---,0.00,VWS V13.01,2013-09-30 15:43:00,
2013-09-30 09:48:00,63.2,41.5,29.64,WSW,241,11.0,12.0,45,0.00,,---,0.00,VWS V13.01,2013-09-30 15:48:00,
2013-09-30 09:53:00,63.4,41.1,29.64,WSW,252,5.0,14.0,44,0.00,,---,0.00,VWS V13.01,2013-09-30 15:53:00,
2013-09-30 09:58:00,63.7,41.4,29.64,WSW,243,9.0,14.0,44,0.00,,---,0.00,VWS V13.01,2013-09-30 15:58:00,
2013-09-30 10:03:00,64.0,41.1,29.64,West,260,8.0,12.0,43,0.00,,---,0.00,VWS V13.01,2013-09-30 16:03:00,
2013-09-30 10:08:00,64.0,41.7,29.64,WSW,240,6.0,14.0,44,0.00,,---,0.00,VWS V13.01,2013-09-30 16:08:00,
2013-09-30 10:13:00,64.1,41.8,29.64,SW,223,5.0,16.0,44,0.00,,---,0.00,VWS V13.01,2013-09-30 16:13:00,
2013-09-30 10:18:00,64.1,42.3,29.64,WNW,284,3.0,16.0,45,0.00,,---,0.00,VWS V13.01,2013-09-30 16:18:00,
2013-09-30 10:23:00,64.0,42.3,29.64,West,265,4.0,16.0,45,0.00,,---,0.00,VWS V13.01,2013-09-30 16:23:00,
2013-09-30 10:28:00,64.0,42.3,29.63,SW,235,9.0,16.0,45,0.00,,---,0.00,VWS V13.01,2013-09-30 16:28:00,
2013-09-30 10:34:00,64.1,42.3,29.63,WSW,238,7.0,16.0,45,0.00,,---,0.00,VWS V13.01,2013-09-30 16:34:00,
2013-09-30 10:39:00,64.3,41.9,29.63,West,260,7.0,16.0,44,0.00,,---,0.00,VWS V13.01,2013-09-30 16:39:00,
2013-09-30 10:44:00,64.5,42.1,29.63,SW,226,13.0,16.0,44,0.00,,---,0.00,VWS V13.01,2013-09-30 16:44:00,
2013-09-30 10:49:00,64.4,42.6,29.63,WSW,249,3.0,16.0,45,0.00,,---,0.00,VWS V13.01,2013-09-30 16:49:00,
2013-09-30 10:54:00,64.4,42.0,29.63,WSW,250,9.0,16.0,44,0.00,,---,0.00,VWS V13.01,2013-09-30 16:54:00,
2013-09-30 10:59:00,64.3,42.5,29.63,WNW,294,3.0,16.0,45,0.00,,---,0.00,VWS V13.01,2013-09-30 16:59:00,
2013-09-30 11:04:00,64.6,41.6,29.63,West,274,5.0,11.0,43,0.00,,---,0.00,VWS V13.01,2013-09-30 17:04:00,
2013-09-30 11:09:00,65.0,42.6,29.63,WSW,257,7.0,13.0,44,0.00,,---,0.00,VWS V13.01,2013-09-30 17:09:00,
2013-09-30 11:14:00,65.4,41.7,29.62,SW,227,10.0,13.0,42,0.00,,---,0.00,VWS V13.01,2013-09-30 17:14:00,
2013-09-30 11:19:00,65.9,42.2,29.63,WSW,243,6.0,17.0,42,0.00,,---,0.00,VWS V13.01,2013-09-30 17:19:00,
2013-09-30 11:24:00,66.2,42.5,29.63,WSW,251,3.0,17.0,42,0.00,,---,0.00,VWS V13.01,2013-09-30 17:24:00,
2013-09-30 11:29:00,66.4,43.8,29.62,WSW,249,4.0,17.0,44,0.00,,---,0.00,VWS V13.01,2013-09-30 17:29:00,
2013-09-30 11:35:00,67.1,42.6,29.63,WSW,255,5.0,13.0,41,0.00,,---,0.00,VWS V13.01,2013-09-30 17:35:00,
2013-09-30 11:40:00,67.3,42.8,29.62,WSW,248,4.0,13.0,41,0.00,,---,0.00,VWS V13.01,2013-09-30 17:40:00,
2013-09-30 11:45:00,67.7,42.5,29.62,WSW,249,7.0,13.0,40,0.00,,---,0.00,VWS V13.01,2013-09-30 17:45:00,
2013-09-30 11:50:00,68.0,41.5,29.62,WSW,237,11.0,16.0,38,0.00,,---,0.00,VWS V13.01,2013-09-30 17:50:00,
2013-09-30 11:55:00,68.1,41.6,29.62,SW,224,7.0,16.0,38,0.00,,---,0.00,VWS V13.01,2013-09-30 17:55:00,
2013-09-30 12:00:00,68.2,41.0,29.62,WSW,238,11.0,12.0,37,0.00,,---,0.00,VWS V13.01,2013-09-30 18:00:00,
2013-09-30 12:05:00,68.0,40.8,29.63,West,261,7.0,12.0,37,0.00,,---,0.00,VWS V13.01,2013-09-30 18:05:00,
2013-09-30 12:10:00,68.0,40.8,29.63,West,271,9.0,12.0,37,0.00,,---,0.00,VWS V13.01,2013-09-30 18:10:00,
2013-09-30 12:15:00,67.5,39.6,29.63,West,278,2.0,15.0,36,0.00,,---,0.00,VWS V13.01,2013-09-30 18:15:00,
2013-09-30 12:20:00,67.8,40.6,29.64,WNW,298,3.0,16.0,37,0.00,,---,0.00,VWS V13.01,2013-09-30 18:20:00,
2013-09-30 12:25:00,67.8,40.6,29.64,WNW,298,8.0,16.0,37,0.00,,---,0.00,VWS V13.01,2013-09-30 18:25:00,
2013-09-30 12:30:00,67.8,41.3,29.65,WNW,288,10.0,14.0,38,0.00,,---,0.00,VWS V13.01,2013-09-30 18:30:00,
2013-09-30 12:36:00,67.3,40.2,29.64,WNW,288,7.0,15.0,37,0.00,,---,0.00,VWS V13.01,2013-09-30 18:36:00,
2013-09-30 12:41:00,67.0,41.2,29.65,WNW,286,16.0,17.0,39,0.00,,---,0.00,VWS V13.01,2013-09-30 18:41:00,
2013-09-30 12:46:00,66.9,41.2,29.64,WNW,295,8.0,17.0,39,0.00,,---,0.00,VWS V13.01,2013-09-30 18:46:00,
2013-09-30 12:51:00,67.3,40.2,29.64,WNW,297,5.0,20.0,37,0.00,,---,0.00,VWS V13.01,2013-09-30 18:51:00,
2013-09-30 12:56:00,67.4,40.2,29.63,WNW,291,3.0,20.0,37,0.00,,---,0.00,VWS V13.01,2013-09-30 18:56:00,
2013-09-30 13:01:00,67.8,40.6,29.64,WNW,297,4.0,9.0,37,0.00,,---,0.00,VWS V13.01,2013-09-30 19:01:00,
2013-09-30 13:06:00,68.4,40.4,29.63,West,273,5.0,10.0,36,0.00,,---,0.00,VWS V13.01,2013-09-30 19:06:00,
2013-09-30 13:11:00,68.9,40.9,29.63,West,265,6.0,12.0,36,0.00,,---,0.00,VWS V13.01,2013-09-30 19:11:00,
2013-09-30 13:16:00,69.0,41.0,29.63,WSW,243,6.0,12.0,36,0.00,,---,0.00,VWS V13.01,2013-09-30 19:16:00,
2013-09-30 13:21:00,69.7,39.3,29.62,West,259,7.0,18.0,33,0.00,,---,0.00,VWS V13.01,2013-09-30 19:21:00,
2013-09-30 13:27:00,69.4,39.1,29.62,WSW,248,8.0,18.0,33,0.00,,---,0.00,VWS V13.01,2013-09-30 19:27:00,
2013-09-30 13:32:00,69.4,39.1,29.62,West,269,6.0,13.0,33,0.00,,---,0.00,VWS V13.01,2013-09-30 19:32:00,
2013-09-30 13:37:00,68.8,38.5,29.62,West,272,7.0,14.0,33,0.00,,---,0.00,VWS V13.01,2013-09-30 19:37:00,
2013-09-30 13:42:00,68.8,38.5,29.62,West,262,2.0,14.0,33,0.00,,---,0.00,VWS V13.01,2013-09-30 19:42:00,
2013-09-30 13:47:00,68.7,38.5,29.63,West,261,5.0,14.0,33,0.00,,---,0.00,VWS V13.01,2013-09-30 19:47:00,
2013-09-30 13:52:00,68.5,38.3,29.62,WSW,242,6.0,14.0,33,0.00,,---,0.00,VWS V13.01,2013-09-30 19:52:00,
2013-09-30 13:57:00,68.9,38.6,29.62,WNW,284,16.0,16.0,33,0.00,,---,0.00,VWS V13.01,2013-09-30 19:57:00,
2013-09-30 14:02:00,68.8,38.5,29.62,WNW,293,15.0,15.0,33,0.00,,---,0.00,VWS V13.01,2013-09-30 20:02:00,
2013-09-30 14:07:00,68.5,38.3,29.62,West,278,10.0,17.0,33,0.00,,---,0.00,VWS V13.01,2013-09-30 20:07:00,
2013-09-30 14:12:00,67.9,37.8,29.61,West,276,11.0,17.0,33,0.00,,---,0.00,VWS V13.01,2013-09-30 20:12:00,
2013-09-30 14:17:00,67.7,37.6,29.62,West,274,12.0,17.0,33,0.00,,---,0.00,VWS V13.01,2013-09-30 20:17:00,
2013-09-30 14:23:00,67.5,38.2,29.63,West,274,7.0,17.0,34,0.00,,---,0.00,VWS V13.01,2013-09-30 20:23:00,
2013-09-30 14:28:00,67.8,37.7,29.63,WSW,252,7.0,17.0,33,0.00,,---,0.00,VWS V13.01,2013-09-30 20:28:00,
2013-09-30 14:33:00,67.9,37.8,29.63,WSW,253,9.0,12.0,33,0.00,,---,0.00,VWS V13.01,2013-09-30 20:33:00,
2013-09-30 14:38:00,67.8,38.4,29.63,West,269,6.0,14.0,34,0.00,,---,0.00,VWS V13.01,2013-09-30 20:38:00,
2013-09-30 14:43:00,67.7,37.6,29.64,WSW,257,8.0,15.0,33,0.00,,---,0.00,VWS V13.01,2013-09-30 20:43:00,
2013-09-30 14:48:00,67.6,38.3,29.64,WNW,286,6.0,18.0,34,0.00,,---,0.00,VWS V13.01,2013-09-30 20:48:00,
2013-09-30 14:53:00,67.5,37.4,29.64,SW,226,17.0,18.0,33,0.00,,---,0.00,VWS V13.01,2013-09-30 20:53:00,
2013-09-30 14:58:00,67.5,37.4,29.63,WSW,239,11.0,18.0,33,0.00,,---,0.00,VWS V13.01,2013-09-30 20:58:00,
2013-09-30 15:03:00,67.4,38.1,29.63,West,260,6.0,17.0,34,0.00,,---,0.00,VWS V13.01,2013-09-30 21:03:00,
2013-09-30 15:08:00,67.4,38.1,29.63,WSW,251,3.0,17.0,34,0.00,,---,0.00,VWS V13.01,2013-09-30 21:08:00,
2013-09-30 15:13:00,66.9,36.9,29.64,West,279,7.0,17.0,33,0.00,,---,0.00,VWS V13.01,2013-09-30 21:13:00,
2013-09-30 15:18:00,66.5,38.0,29.64,SW,228,7.0,17.0,35,0.00,,---,0.00,VWS V13.01,2013-09-30 21:18:00,
2013-09-30 15:24:00,66.6,37.4,29.65,WNW,291,11.0,17.0,34,0.00,,---,0.00,VWS V13.01,2013-09-30 21:24:00,
2013-09-30 15:29:00,66.6,36.6,29.65,West,264,2.0,17.0,33,0.00,,---,0.00,VWS V13.01,2013-09-30 21:29:00,
2013-09-30 15:34:00,66.4,37.2,29.65,West,270,11.0,14.0,34,0.00,,---,0.00,VWS V13.01,2013-09-30 21:34:00,
2013-09-30 15:39:00,66.3,37.8,29.65,WNW,289,7.0,14.0,35,0.00,,---,0.00,VWS V13.01,2013-09-30 21:39:00,
2013-09-30 15:44:00,66.2,37.0,29.66,West,260,9.0,16.0,34,0.00,,---,0.00,VWS V13.01,2013-09-30 21:44:00,
2013-09-30 15:49:00,66.2,37.0,29.66,WNW,291,9.0,16.0,34,0.00,,---,0.00,VWS V13.01,2013-09-30 21:49:00,
2013-09-30 15:54:00,66.2,37.8,29.66,WNW,287,4.0,16.0,35,0.00,,---,0.00,VWS V13.01,2013-09-30 21:54:00,
2013-09-30 15:59:00,66.1,37.7,29.67,WNW,287,5.0,17.0,35,0.00,,---,0.00,VWS V13.01,2013-09-30 21:59:00,
2013-09-30 16:04:00,66.1,37.7,29.67,West,271,5.0,12.0,35,0.00,,---,0.00,VWS V13.01,2013-09-30 22:04:00,
2013-09-30 16:09:00,65.7,38.0,29.67,West,279,7.0,22.0,36,0.00,,---,0.00,VWS V13.01,2013-09-30 22:09:00,
2013-09-30 16:14:00,65.2,37.6,29.67,SW,218,7.0,22.0,36,0.00,,---,0.00,VWS V13.01,2013-09-30 22:14:00,
2013-09-30 16:20:00,65.0,37.4,29.68,WSW,248,8.0,22.0,36,0.00,,---,0.00,VWS V13.01,2013-09-30 22:20:00,
2013-09-30 16:25:00,64.7,37.2,29.68,West,281,8.0,22.0,36,0.00,,---,0.00,VWS V13.01,2013-09-30 22:25:00,
2013-09-30 16:30:00,64.4,37.6,29.69,WNW,293,12.0,24.0,37,0.00,,---,0.00,VWS V13.01,2013-09-30 22:30:00,
2013-09-30 16:35:00,64.3,37.5,29.69,WNW,296,8.0,12.0,37,0.00,,---,0.00,VWS V13.01,2013-09-30 22:35:00,
2013-09-30 16:40:00,64.2,37.4,29.69,WNW,284,5.0,14.0,37,0.00,,---,0.00,VWS V13.01,2013-09-30 22:40:00,
2013-09-30 16:45:00,64.0,37.2,29.71,WNW,297,12.0,14.0,37,0.00,,---,0.00,VWS V13.01,2013-09-30 22:45:00,
2013-09-30 16:50:00,63.8,36.4,29.70,West,273,8.0,21.0,36,0.00,,---,0.00,VWS V13.01,2013-09-30 22:50:00,
2013-09-30 16:55:00,63.4,38.0,29.71,WNW,302,7.0,23.0,39,0.00,,---,0.00,VWS V13.01,2013-09-30 22:55:00,
2013-09-30 17:00:00,62.3,37.7,29.72,NNW,347,14.0,17.0,40,0.00,,---,0.00,VWS V13.01,2013-09-30 23:00:00,
2013-09-30 17:05:00,59.0,38.3,29.72,North,1,20.0,22.0,46,0.00,,---,0.00,VWS V13.01,2013-09-30 23:05:00,
2013-09-30 17:10:00,56.8,38.4,29.72,North,358,11.0,22.0,50,0.00,,---,0.00,VWS V13.01,2013-09-30 23:10:00,
2013-09-30 17:16:00,55.6,38.3,29.73,NNW,329,11.0,22.0,52,0.00,,---,0.00,VWS V13.01,2013-09-30 23:16:00,
2013-09-30 17:21:00,54.9,38.6,29.73,North,5,8.0,22.0,54,0.00,,---,0.00,VWS V13.01,2013-09-30 23:21:00,
2013-09-30 17:26:00,54.4,38.6,29.73,NE,39,2.0,22.0,55,0.00,,---,0.00,VWS V13.01,2013-09-30 23:26:00,
2013-09-30 17:31:00,53.8,38.9,29.73,NNE,19,2.0,2.0,57,0.00,,---,0.00,VWS V13.01,2013-09-30 23:31:00,
2013-09-30 17:36:00,53.2,38.8,29.73,NE,44,0.0,5.0,58,0.00,,---,0.00,VWS V13.01,2013-09-30 23:36:00,
2013-09-30 17:41:00,52.8,38.9,29.72,NNE,17,2.0,5.0,59,0.00,,---,0.00,VWS V13.01,2013-09-30 23:41:00,
2013-09-30 17:46:00,52.6,39.1,29.73,North,0,0.0,6.0,60,0.00,,---,0.00,VWS V13.01,2013-09-30 23:46:00,
2013-09-30 17:51:00,52.5,38.6,29.72,East,97,4.0,9.0,59,0.00,,---,0.00,VWS V13.01,2013-09-30 23:51:00,
2013-09-30 17:56:00,52.7,38.8,29.72,East,94,0.0,9.0,59,0.00,,---,0.00,VWS V13.01,2013-09-30 23:56:00,
2013-09-30 18:01:00,52.6,38.7,29.71,East,82,1.0,3.0,59,0.00,,---,0.00,VWS V13.01,2013-10-01 00:01:00,
2013-09-30 18:07:00,52.5,38.6,29.72,East,82,0.0,3.0,59,0.00,,---,0.00,VWS V13.01,2013-10-01 00:07:00,
2013-09-30 18:12:00,52.5,39.0,29.72,ENE,68,0.0,3.0,60,0.00,,---,0.00,VWS V13.01,2013-10-01 00:12:00,
2013-09-30 18:17:00,52.6,39.1,29.74,ENE,68,0.0,3.0,60,0.00,,---,0.00,VWS V13.01,2013-10-01 00:17:00,
2013-09-30 18:22:00,52.8,39.3,29.74,North,359,0.0,4.0,60,0.00,,---,0.00,VWS V13.01,2013-10-01 00:22:00,
2013-09-30 18:27:00,53.0,40.3,29.74,NNW,336,3.0,5.0,62,0.00,,---,0.00,VWS V13.01,2013-10-01 00:27:00,
2013-09-30 18:32:00,53.2,39.7,29.75,WNW,301,1.0,4.0,60,0.00,,---,0.00,VWS V13.01,2013-10-01 00:32:00,
2013-09-30 18:37:00,53.5,39.5,29.76,WNW,301,2.0,10.0,59,0.00,,---,0.00,VWS V13.01,2013-10-01 00:37:00,
2013-09-30 18:42:00,53.8,39.4,29.74,WNW,285,4.0,12.0,58,0.00,,---,0.00,VWS V13.01,2013-10-01 00:42:00,
2013-09-30 18:47:00,54.0,39.1,29.75,West,280,2.0,12.0,57,0.00,,---,0.00,VWS V13.01,2013-10-01 00:47:00,
2013-09-30 18:52:00,54.0,39.1,29.74,WNW,299,3.0,12.0,57,0.00,,---,0.00,VWS V13.01,2013-10-01 00:52:00,
2013-09-30 18:57:00,53.9,38.6,29.74,WNW,289,2.0,12.0,56,0.00,,---,0.00,VWS V13.01,2013-10-01 00:57:00,
2013-09-30 19:03:00,53.7,38.4,29.75,WNW,299,4.0,4.0,56,0.00,,---,0.00,VWS V13.01,2013-10-01 01:03:00,
2013-09-30 19:08:00,53.5,38.7,29.75,WNW,300,7.0,7.0,57,0.00,,---,0.00,VWS V13.01,2013-10-01 01:08:00,
2013-09-30 19:13:00,53.4,38.6,29.75,WNW,290,9.0,13.0,57,0.00,,---,0.00,VWS V13.01,2013-10-01 01:13:00,
2013-09-30 19:18:00,53.6,38.3,29.74,NW,304,12.0,16.0,56,0.00,,---,0.00,VWS V13.01,2013-10-01 01:18:00,
2013-09-30 19:23:00,53.6,38.8,29.76,NW,322,12.0,27.0,57,0.00,,---,0.00,VWS V13.01,2013-10-01 01:23:00,
2013-09-30 19:28:00,52.9,38.5,29.75,NW,310,4.0,27.0,58,0.00,,---,0.00,VWS V13.01,2013-10-01 01:28:00,
2013-09-30 19:33:00,52.2,38.3,29.76,NW,314,9.0,12.0,59,0.00,,---,0.00,VWS V13.01,2013-10-01 01:33:00,
2013-09-30 19:38:00,51.4,38.0,29.77,NW,317,7.0,15.0,60,0.00,,---,0.00,VWS V13.01,2013-10-01 01:38:00,
2013-09-30 19:43:00,50.6,37.2,29.78,NNW,347,3.0,15.0,60,0.00,,---,0.00,VWS V13.01,2013-10-01 01:43:00,
2013-09-30 19:48:00,50.2,37.7,29.78,NW,312,5.0,15.0,62,0.00,,---,0.00,VWS V13.01,2013-10-01 01:48:00,
2013-09-30 19:53:00,49.9,37.4,29.78,WNW,301,4.0,15.0,62,0.00,,---,0.00,VWS V13.01,2013-10-01 01:53:00,
2013-09-30 19:58:00,49.9,37.8,29.78,WNW,294,3.0,15.0,63,0.00,,---,0.00,VWS V13.01,2013-10-01 01:58:00,
2013-09-30 20:04:00,49.8,37.7,29.78,NW,322,0.0,3.0,63,0.00,,---,0.00,VWS V13.01,2013-10-01 02:04:00,
2013-09-30 20:09:00,49.5,37.4,29.79,NW,315,0.0,3.0,63,0.00,,---,0.00,VWS V13.01,2013-10-01 02:09:00,
2013-09-30 20:14:00,49.1,37.5,29.78,South,188,5.0,5.0,64,0.00,,---,0.00,VWS V13.01,2013-10-01 02:14:00,
2013-09-30 20:19:00,49.0,37.8,29.78,SW,218,3.0,7.0,65,0.00,,---,0.00,VWS V13.01,2013-10-01 02:19:00,
2013-09-30 20:24:00,49.4,37.8,29.78,SW,234,6.0,8.0,64,0.00,,---,0.00,VWS V13.01,2013-10-01 02:24:00,
2013-09-30 20:29:00,50.0,37.9,29.78,SSW,203,3.0,8.0,63,0.00,,---,0.00,VWS V13.01,2013-10-01 02:29:00,
2013-09-30 20:34:00,50.4,37.9,29.79,West,278,5.0,8.0,62,0.00,,---,0.00,VWS V13.01,2013-10-01 02:34:00,
2013-09-30 20:39:00,50.8,37.8,29.78,WNW,288,1.0,8.0,61,0.00,,---,0.00,VWS V13.01,2013-10-01 02:39:00,
2013-09-30 20:44:00,51.0,37.6,29.79,West,273,0.0,8.0,60,0.00,,---,0.00,VWS V13.01,2013-10-01 02:44:00,
2013-09-30 20:49:00,51.1,37.3,29.79,West,280,2.0,8.0,59,0.00,,---,0.00,VWS V13.01,2013-10-01 02:49:00,
2013-09-30 20:54:00,51.4,36.7,29.78,NW,314,2.0,8.0,57,0.00,,---,0.00,VWS V13.01,2013-10-01 02:54:00,
2013-09-30 21:00:00,51.8,35.2,29.78,West,278,0.0,4.0,53,0.00,,---,0.00,VWS V13.01,2013-10-01 03:00:00,
2013-09-30 21:05:00,52.4,35.3,29.78,WNW,294,2.0,5.0,52,0.00,,---,0.00,VWS V13.01,2013-10-01 03:05:00,
2013-09-30 21:10:00,52.6,35.5,29.79,WNW,287,0.0,5.0,52,0.00,,---,0.00,VWS V13.01,2013-10-01 03:10:00,
2013-09-30 21:15:00,52.6,35.0,29.79,WNW,287,0.0,5.0,51,0.00,,---,0.00,VWS V13.01,2013-10-01 03:15:00,
2013-09-30 21:20:00,52.1,35.5,29.80,WNW,287,0.0,5.0,53,0.00,,---,0.00,VWS V13.01,2013-10-01 03:20:00,
2013-09-30 21:25:00,51.2,35.6,29.78,North,11,0.0,5.0,55,0.00,,---,0.00,VWS V13.01,2013-10-01 03:25:00,
2013-09-30 21:30:00,50.2,35.1,29.78,East,93,0.0,0.0,56,0.00,,---,0.00,VWS V13.01,2013-10-01 03:30:00,
2013-09-30 21:35:00,49.7,35.1,29.80,North,352,0.0,6.0,57,0.00,,---,0.00,VWS V13.01,2013-10-01 03:35:00,
2013-09-30 21:40:00,49.5,34.9,29.81,North,352,0.0,6.0,57,0.00,,---,0.00,VWS V13.01,2013-10-01 03:40:00,
2013-09-30 21:46:00,49.3,34.7,29.81,North,352,0.0,6.0,57,0.00,,---,0.00,VWS V13.01,2013-10-01 03:46:00,
2013-09-30 21:51:00,49.2,33.7,29.81,North,351,0.0,6.0,55,0.00,,---,0.00,VWS V13.01,2013-10-01 03:51:00,
2013-09-30 21:56:00,49.7,31.8,29.81,NNW,331,0.0,6.0,50,0.00,,---,0.00,VWS V13.01,2013-10-01 03:56:00,
2013-09-30 22:01:00,50.8,29.7,29.81,WSW,257,6.0,6.0,44,0.00,,---,0.00,VWS V13.01,2013-10-01 04:01:00,
2013-09-30 22:03:00,51.4,29.7,29.81,WNW,295,3.0,8.0,43,0.00,,---,0.00,VWS V13.01,2013-10-01 04:03:00,
2013-09-30 22:08:00,51.8,30.0,29.82,West,270,1.0,8.0,43,0.00,,---,0.00,VWS V13.01,2013-10-01 04:08:00,
2013-09-30 22:13:00,52.8,32.6,29.82,East,90,5.0,8.0,46,0.00,,---,0.00,VWS V13.01,2013-10-01 04:13:00,
2013-09-30 22:18:00,51.1,34.6,29.82,ENE,76,0.0,8.0,53,0.00,,---,0.00,VWS V13.01,2013-10-01 04:18:00,
2013-09-30 22:23:00,50.0,34.5,29.82,ENE,69,0.0,8.0,55,0.00,,---,0.00,VWS V13.01,2013-10-01 04:23:00,
2013-09-30 22:28:00,49.5,33.1,29.83,North,10,0.0,8.0,53,0.00,,---,0.00,VWS V13.01,2013-10-01 04:28:00,
2013-09-30 22:33:00,49.2,33.3,29.83,North,10,0.0,1.0,54,0.00,,---,0.00,VWS V13.01,2013-10-01 04:33:00,
2013-09-30 22:38:00,48.8,33.4,29.83,North,10,0.0,1.0,55,0.00,,---,0.00,VWS V13.01,2013-10-01 04:38:00,
2013-09-30 22:43:00,48.6,32.7,29.83,North,10,0.0,1.0,54,0.00,,---,0.00,VWS V13.01,2013-10-01 04:43:00,
2013-09-30 22:48:00,49.2,30.9,29.84,North,0,0.0,4.0,49,0.00,,---,0.00,VWS V13.01,2013-10-01 04:48:00,
2013-09-30 22:53:00,50.1,31.2,29.83,NNE,18,0.0,4.0,48,0.00,,---,0.00,VWS V13.01,2013-10-01 04:53:00,
2013-09-30 22:59:00,50.2,30.2,29.84,NNE,18,0.0,4.0,46,0.00,,---,0.00,VWS V13.01,2013-10-01 04:59:00,
2013-09-30 23:04:00,50.0,31.6,29.84,NNE,18,0.0,0.0,49,0.00,,---,0.00,VWS V13.01,2013-10-01 05:04:00,
2013-09-30 23:09:00,49.3,31.0,29.84,NNE,18,0.0,2.0,49,0.00,,---,0.00,VWS V13.01,2013-10-01 05:09:00,
2013-09-30 23:30:00,48.9,32.1,29.85,NNE,22,1.0,5.0,52,0.00,,---,0.00,VWS V13.01,2013-10-01 05:30:00,